Airfield :
LOGIN :

Register | Disclaimer

   EN    FR    IT 

 










Legend :    VFR   Marginal VFR   IFR   Intensive IFR   Very Intensive IFR
Visi :
Ceiling :
>= 8 km
>= 3000ft
5 to 8 km
1000 to 3000 ft
1500m to 5 km
500 to 1000 ft
800 to 1500m
200 to 500 ft
< 800m
< 200 ft
Symbols :   Thunderstorms  Fog  Heavy snow  Heavy precipitations  Wind > 20 kt
SIGMETs :     Misc.  Thunderstorms  Icing  Turbulence  Mountain Waves  Volcanic Ashes







- Airport Elevation : 610 ft
- IATA code : VXO


ESMX - Växjö Kronoberg

CURRENT METAR :
  • 200850Z AUTO 15007KT 9999 BKN064/// 21/15 Q1015

EXPIRED METARs :
  • 200820Z AUTO 15008KT 9999 SCT062/// 21/15 Q1015
  • 200750Z AUTO 14008KT 110V170 9999 OVC062/// 20/14 Q1015
  • 200720Z AUTO 14006KT 100V200 9999 FEW062/// 19/15 Q1015
  • 200650Z AUTO 15006KT 9999 SCT062/// 18/18 Q1015
  • 200620Z AUTO 14005KT 100V170 9999 NCD 18/18 Q1015

TAF TAF ESMX
Valid from the 20 at 09:00 until the 20 at 14:00 UTC


200830Z 2009/2014 17008KT CAVOK
No reported NOTAMs for that airfield.



MET'MAP, your aeronautical weather chart ! - Copyright ORBIFLY December 2007 - Disclaimer

ORBIFLY MET'MAP TEAM :

Programming & Development : Alexandra Zaïnal
Concept & Development : Baudouin d'Aumeries
Co-Development & Prog : Marc-Olivier Méhu
Technical & hardware support : Manuel Goepfert

Contact : metmap@orbifly.com




SOURCES & CREDITS :

   NOAA